Time,TemperatureF,DewpointF,PressureIn,WindDirection,WindDirectionDegrees,WindSpeedMPH,WindSpeedGustMPH,Humidity,HourlyPrecipIn,Conditions,Clouds,dailyrainin,SoftwareType,DateUTC
2013-04-30 00:03:00,63.9,55.4,28.97,South,180,3.4,3.4,74,0.00,,---,0.00,VWS V14.01,2013-04-30 05:03:00,
2013-04-30 00:08:00,63.9,55.4,28.97,SSW,202,5.4,5.4,74,0.00,,---,0.00,VWS V14.01,2013-04-30 05:08:00,
2013-04-30 00:13:00,63.7,55.6,28.97,SE,135,7.4,7.4,75,0.00,,---,0.00,VWS V14.01,2013-04-30 05:13:00,
2013-04-30 00:18:00,63.7,55.6,28.97,ESE,112,5.8,6.3,75,0.00,,---,0.00,VWS V14.01,2013-04-30 05:18:00,
2013-04-30 00:23:00,63.5,55.4,28.97,South,180,4.0,7.2,75,0.00,,---,0.00,VWS V14.01,2013-04-30 05:23:00,
2013-04-30 00:28:00,63.5,55.4,28.97,SE,135,2.7,3.6,75,0.00,,---,0.00,VWS V14.01,2013-04-30 05:28:00,
2013-04-30 00:33:00,63.3,55.6,28.97,East,90,2.5,2.9,76,0.00,,---,0.00,VWS V14.01,2013-04-30 05:33:00,
2013-04-30 00:38:00,63.3,55.6,28.97,SE,135,4.9,4.9,76,0.00,,---,0.00,VWS V14.01,2013-04-30 05:38:00,
2013-04-30 00:43:00,63.1,55.5,28.97,South,180,3.4,3.4,76,0.00,,---,0.00,VWS V14.01,2013-04-30 05:43:00,
2013-04-30 00:48:00,63.1,55.5,28.97,South,180,2.9,2.9,76,0.00,,---,0.00,VWS V14.01,2013-04-30 05:48:00,
2013-04-30 00:53:00,63.1,55.8,28.97,South,180,3.8,5.8,77,0.00,,---,0.00,VWS V14.01,2013-04-30 05:53:00,
2013-04-30 00:58:00,63.1,55.8,28.97,SSW,202,2.7,5.4,77,0.00,,---,0.00,VWS V14.01,2013-04-30 05:58:00,
2013-04-30 01:03:00,63.1,55.8,28.97,ESE,112,4.7,4.7,77,0.00,,---,0.00,VWS V14.01,2013-04-30 06:03:00,
2013-04-30 01:09:00,63.1,55.8,28.97,South,180,5.4,5.4,77,0.00,,---,0.00,VWS V14.01,2013-04-30 06:09:00,
2013-04-30 01:14:00,63.1,56.2,28.97,SSW,202,7.4,7.4,78,0.00,,---,0.00,VWS V14.01,2013-04-30 06:14:00,
2013-04-30 01:19:00,63.1,56.2,28.97,South,180,8.7,8.7,78,0.00,,---,0.00,VWS V14.01,2013-04-30 06:19:00,
2013-04-30 01:24:00,63.1,56.2,28.97,SSW,202,6.5,6.5,78,0.00,,---,0.00,VWS V14.01,2013-04-30 06:24:00,
2013-04-30 01:29:00,63.1,56.5,28.97,South,180,4.3,4.3,79,0.00,,---,0.00,VWS V14.01,2013-04-30 06:29:00,
2013-04-30 01:34:00,63.0,56.3,28.97,South,180,4.0,4.0,79,0.00,,---,0.00,VWS V14.01,2013-04-30 06:34:00,
2013-04-30 01:40:00,63.0,56.3,28.97,SSE,158,5.4,5.4,79,0.00,,---,0.00,VWS V14.01,2013-04-30 06:40:00,
2013-04-30 01:45:00,62.8,56.2,28.97,ESE,112,3.6,3.6,79,0.00,,---,0.00,VWS V14.01,2013-04-30 06:45:00,
2013-04-30 01:50:00,62.8,56.5,28.97,SSE,158,4.0,4.0,80,0.00,,---,0.00,VWS V14.01,2013-04-30 06:50:00,
2013-04-30 01:55:00,62.8,56.5,28.97,SSE,158,7.6,7.6,80,0.00,,---,0.00,VWS V14.01,2013-04-30 06:55:00,
2013-04-30 02:00:00,62.6,56.3,28.97,SSW,202,3.1,4.7,80,0.00,,---,0.00,VWS V14.01,2013-04-30 07:00:00,
2013-04-30 02:05:00,62.8,56.5,28.97,SW,225,7.6,7.6,80,0.00,,---,0.00,VWS V14.01,2013-04-30 07:05:00,
2013-04-30 02:10:00,62.8,56.9,28.97,SSE,158,4.3,4.3,81,0.00,,---,0.00,VWS V14.01,2013-04-30 07:10:00,
2013-04-30 02:16:00,62.6,56.7,28.97,SSE,158,5.4,5.4,81,0.00,,---,0.00,VWS V14.01,2013-04-30 07:16:00,
2013-04-30 02:21:00,62.6,56.7,28.97,SSW,202,6.0,6.0,81,0.00,,---,0.00,VWS V14.01,2013-04-30 07:21:00,
2013-04-30 02:26:00,62.6,56.7,28.97,SSW,202,8.1,8.1,81,0.00,,---,0.00,VWS V14.01,2013-04-30 07:26:00,
2013-04-30 02:31:00,62.6,56.7,28.97,SSW,202,4.9,4.9,81,0.00,,---,0.00,VWS V14.01,2013-04-30 07:31:00,
2013-04-30 02:36:00,62.6,56.7,28.97,South,180,4.7,4.7,81,0.00,,---,0.00,VWS V14.01,2013-04-30 07:36:00,
2013-04-30 02:41:00,62.4,56.9,28.97,SSE,158,5.4,5.4,82,0.00,,---,0.00,VWS V14.01,2013-04-30 07:41:00,
2013-04-30 02:46:00,62.4,56.9,28.97,South,180,5.6,5.8,82,0.00,,---,0.00,VWS V14.01,2013-04-30 07:46:00,
2013-04-30 02:51:00,62.2,56.7,28.97,South,180,3.4,3.4,82,0.00,,---,0.00,VWS V14.01,2013-04-30 07:51:00,
2013-04-30 02:56:00,62.2,57.0,28.97,South,180,3.1,6.5,83,0.00,,---,0.00,VWS V14.01,2013-04-30 07:56:00,
2013-04-30 03:01:00,62.1,56.8,28.97,South,180,5.8,6.5,83,0.00,,---,0.00,VWS V14.01,2013-04-30 08:01:00,
2013-04-30 03:06:00,61.9,56.7,28.97,SSW,202,3.1,4.3,83,0.00,,---,0.00,VWS V14.01,2013-04-30 08:06:00,
2013-04-30 03:11:00,61.9,56.7,28.97,SSW,202,3.4,5.6,83,0.00,,---,0.00,VWS V14.01,2013-04-30 08:11:00,
2013-04-30 03:16:00,61.9,56.7,28.97,South,180,4.0,4.0,83,0.00,,---,0.00,VWS V14.01,2013-04-30 08:16:00,
2013-04-30 03:21:00,61.7,56.5,28.97,SSW,202,4.3,4.3,83,0.00,,---,0.00,VWS V14.01,2013-04-30 08:21:00,
2013-04-30 03:26:00,61.7,56.8,28.97,South,180,3.8,3.8,84,0.00,,---,0.00,VWS V14.01,2013-04-30 08:26:00,
2013-04-30 03:32:00,61.5,56.7,28.97,SSE,158,6.5,8.1,84,0.00,,---,0.00,VWS V14.01,2013-04-30 08:32:00,
2013-04-30 03:37:00,61.5,56.7,28.97,South,180,7.2,7.2,84,0.00,,---,0.00,VWS V14.01,2013-04-30 08:37:00,
2013-04-30 03:42:00,61.3,56.5,28.97,SSE,158,3.8,6.3,84,0.00,,---,0.00,VWS V14.01,2013-04-30 08:42:00,
2013-04-30 03:47:00,61.3,56.5,28.97,South,180,2.7,2.7,84,0.00,,---,0.00,VWS V14.01,2013-04-30 08:47:00,
2013-04-30 03:52:00,61.2,56.6,28.97,South,180,4.3,4.3,85,0.00,,---,0.00,VWS V14.01,2013-04-30 08:52:00,
2013-04-30 03:58:00,61.2,56.6,28.97,South,180,4.3,7.4,85,0.00,,---,0.00,VWS V14.01,2013-04-30 08:58:00,
2013-04-30 04:03:00,61.2,56.6,28.97,SE,135,4.0,4.0,85,0.00,,---,0.00,VWS V14.01,2013-04-30 09:03:00,
2013-04-30 04:08:00,61.0,56.5,28.97,SSW,202,3.8,4.3,85,0.00,,---,0.00,VWS V14.01,2013-04-30 09:08:00,
2013-04-30 04:13:00,61.0,56.5,28.97,SSW,202,7.8,8.1,85,0.00,,---,0.00,VWS V14.01,2013-04-30 09:13:00,
2013-04-30 04:18:00,60.8,56.6,28.97,NW,315,4.9,6.3,86,0.00,,---,0.00,VWS V14.01,2013-04-30 09:18:00,
2013-04-30 04:23:00,60.8,56.6,28.97,South,180,3.1,3.1,86,0.00,,---,0.00,VWS V14.01,2013-04-30 09:23:00,
2013-04-30 04:28:00,60.8,56.6,28.97,SSE,158,3.6,8.1,86,0.00,,---,0.00,VWS V14.01,2013-04-30 09:28:00,
2013-04-30 04:33:00,60.6,56.4,28.97,South,180,5.8,5.8,86,0.00,,---,0.00,VWS V14.01,2013-04-30 09:33:00,
2013-04-30 04:38:00,60.6,56.7,28.97,SSW,202,7.8,7.8,87,0.00,,---,0.00,VWS V14.01,2013-04-30 09:38:00,
2013-04-30 04:43:00,60.6,56.7,28.97,South,180,4.0,4.0,87,0.00,,---,0.00,VWS V14.01,2013-04-30 09:43:00,
2013-04-30 04:49:00,60.6,56.7,28.97,SSW,202,3.6,3.6,87,0.00,,---,0.00,VWS V14.01,2013-04-30 09:49:00,
2013-04-30 04:54:00,60.6,56.7,28.97,South,180,4.7,5.4,87,0.00,,---,0.00,VWS V14.01,2013-04-30 09:54:00,
2013-04-30 04:59:00,60.4,56.6,28.97,East,90,6.5,6.5,87,0.00,,---,0.00,VWS V14.01,2013-04-30 09:59:00,
2013-04-30 05:04:00,60.4,56.6,28.97,South,180,2.9,2.9,87,0.00,,---,0.00,VWS V14.01,2013-04-30 10:04:00,
2013-04-30 05:09:00,60.4,56.6,28.97,South,180,2.0,7.8,87,0.00,,---,0.00,VWS V14.01,2013-04-30 10:09:00,
2013-04-30 05:14:00,60.3,56.7,28.97,East,90,3.8,6.5,88,0.00,,---,0.00,VWS V14.01,2013-04-30 10:14:00,
2013-04-30 05:19:00,60.3,56.7,28.97,SSE,158,5.6,5.6,88,0.00,,---,0.00,VWS V14.01,2013-04-30 10:19:00,
2013-04-30 05:24:00,60.3,56.4,28.97,SSE,158,4.0,4.3,87,0.00,,---,0.00,VWS V14.01,2013-04-30 10:24:00,
2013-04-30 05:29:00,60.1,56.2,28.97,South,180,6.0,6.0,87,0.00,,---,0.00,VWS V14.01,2013-04-30 10:29:00,
2013-04-30 05:34:00,60.1,56.5,28.97,SE,135,4.5,4.5,88,0.00,,---,0.00,VWS V14.01,2013-04-30 10:34:00,
2013-04-30 05:39:00,60.1,56.5,28.97,South,180,3.4,3.4,88,0.00,,---,0.00,VWS V14.01,2013-04-30 10:39:00,
2013-04-30 05:45:00,60.1,56.5,28.97,SE,135,3.4,5.8,88,0.00,,---,0.00,VWS V14.01,2013-04-30 10:45:00,
2013-04-30 05:50:00,60.1,56.5,29.00,SSW,202,5.6,5.6,88,0.00,,---,0.00,VWS V14.01,2013-04-30 10:50:00,
2013-04-30 05:55:00,59.9,56.3,29.00,South,180,4.3,4.3,88,0.00,,---,0.00,VWS V14.01,2013-04-30 10:55:00,
2013-04-30 06:00:00,59.9,56.3,29.00,South,180,7.8,7.8,88,0.00,,---,0.00,VWS V14.01,2013-04-30 11:00:00,
2013-04-30 06:05:00,60.1,56.5,29.00,South,180,8.5,8.5,88,0.00,,---,0.00,VWS V14.01,2013-04-30 11:05:00,
2013-04-30 06:11:00,59.9,56.3,29.00,SW,225,3.1,3.1,88,0.00,,---,0.00,VWS V14.01,2013-04-30 11:11:00,
2013-04-30 06:16:00,59.9,56.3,29.00,South,180,4.7,4.7,88,0.00,,---,0.00,VWS V14.01,2013-04-30 11:16:00,
2013-04-30 06:21:00,59.9,56.3,29.00,SSE,158,1.3,5.4,88,0.00,,---,0.00,VWS V14.01,2013-04-30 11:21:00,
2013-04-30 06:26:00,59.9,56.3,29.00,East,90,3.6,5.4,88,0.00,,---,0.00,VWS V14.01,2013-04-30 11:26:00,
2013-04-30 06:31:00,59.9,56.7,29.03,SSW,202,3.6,3.6,89,0.00,,---,0.00,VWS V14.01,2013-04-30 11:31:00,
2013-04-30 06:36:00,59.9,56.7,29.03,SSW,202,8.5,8.5,89,0.00,,---,0.00,VWS V14.01,2013-04-30 11:36:00,
2013-04-30 06:41:00,60.1,56.8,29.03,South,180,4.3,4.3,89,0.00,,---,0.00,VWS V14.01,2013-04-30 11:41:00,
2013-04-30 06:46:00,60.1,56.8,29.03,South,180,6.3,7.6,89,0.00,,---,0.00,VWS V14.01,2013-04-30 11:46:00,
2013-04-30 06:51:00,60.4,56.9,29.03,SSE,158,5.6,7.2,88,0.00,,---,0.00,VWS V14.01,2013-04-30 11:51:00,
2013-04-30 06:56:00,60.4,56.9,29.03,South,180,2.7,3.4,88,0.00,,---,0.00,VWS V14.01,2013-04-30 11:56:00,
2013-04-30 07:01:00,60.4,56.9,29.03,SSW,202,4.3,5.6,88,0.00,,---,0.00,VWS V14.01,2013-04-30 12:01:00,
2013-04-30 07:06:00,60.4,57.2,29.03,SSE,158,2.9,2.9,89,0.00,,---,0.00,VWS V14.01,2013-04-30 12:06:00,
2013-04-30 07:11:00,60.4,57.2,29.03,SSW,202,5.4,5.4,89,0.00,,---,0.00,VWS V14.01,2013-04-30 12:11:00,
2013-04-30 07:16:00,60.4,56.9,29.03,SE,135,6.0,8.1,88,0.00,,---,0.00,VWS V14.01,2013-04-30 12:16:00,
2013-04-30 07:21:00,60.6,57.0,29.03,SSW,202,2.9,2.9,88,0.00,,---,0.00,VWS V14.01,2013-04-30 12:21:00,
2013-04-30 07:27:00,60.6,57.0,29.03,South,180,4.0,4.0,88,0.00,,---,0.00,VWS V14.01,2013-04-30 12:27:00,
2013-04-30 07:32:00,60.6,57.0,29.03,SSE,158,3.4,3.4,88,0.00,,---,0.00,VWS V14.01,2013-04-30 12:32:00,
2013-04-30 07:37:00,60.8,57.2,29.03,SSW,202,5.6,5.6,88,0.00,,---,0.00,VWS V14.01,2013-04-30 12:37:00,
2013-04-30 07:42:00,61.2,57.6,29.03,South,180,4.9,5.6,88,0.00,,---,0.00,VWS V14.01,2013-04-30 12:42:00,
2013-04-30 07:47:00,61.3,57.8,29.03,SSW,202,5.6,5.6,88,0.00,,---,0.00,VWS V14.01,2013-04-30 12:47:00,
2013-04-30 07:52:00,61.5,57.9,29.03,South,180,4.0,4.0,88,0.00,,---,0.00,VWS V14.01,2013-04-30 12:52:00,
2013-04-30 07:58:00,62.2,58.7,29.03,SSW,202,4.0,4.0,88,0.00,,---,0.00,VWS V14.01,2013-04-30 12:58:00,
2013-04-30 08:03:00,63.1,59.2,29.03,SSE,158,3.1,3.1,87,0.00,,---,0.00,VWS V14.01,2013-04-30 13:03:00,
2013-04-30 08:08:00,64.0,59.8,29.03,SSW,202,3.8,4.3,86,0.00,,---,0.00,VWS V14.01,2013-04-30 13:08:00,
2013-04-30 08:13:00,64.4,59.8,29.03,SSE,158,10.3,10.3,85,0.00,,---,0.00,VWS V14.01,2013-04-30 13:13:00,
2013-04-30 08:18:00,65.1,60.5,29.03,SSW,202,5.4,6.5,85,0.00,,---,0.00,VWS V14.01,2013-04-30 13:18:00,
2013-04-30 08:23:00,65.5,60.5,29.03,SSW,202,4.5,4.5,84,0.00,,---,0.00,VWS V14.01,2013-04-30 13:23:00,
2013-04-30 08:28:00,65.8,60.9,29.03,SE,135,6.0,6.0,84,0.00,,---,0.00,VWS V14.01,2013-04-30 13:28:00,
2013-04-30 08:33:00,66.4,61.1,29.03,SW,225,3.4,3.4,83,0.00,,---,0.00,VWS V14.01,2013-04-30 13:33:00,
2013-04-30 08:38:00,66.9,61.2,29.03,South,180,4.9,6.3,82,0.00,,---,0.00,VWS V14.01,2013-04-30 13:38:00,
2013-04-30 08:44:00,67.5,61.8,29.03,SSW,202,5.6,5.6,82,0.00,,---,0.00,VWS V14.01,2013-04-30 13:44:00,
2013-04-30 08:49:00,67.8,62.1,29.03,South,180,8.5,8.5,82,0.00,,---,0.00,VWS V14.01,2013-04-30 13:49:00,
2013-04-30 08:54:00,68.4,62.3,29.03,SW,225,7.8,8.7,81,0.00,,---,0.00,VWS V14.01,2013-04-30 13:54:00,
2013-04-30 08:59:00,68.7,62.7,29.03,South,180,5.6,5.6,81,0.00,,---,0.00,VWS V14.01,2013-04-30 13:59:00,
2013-04-30 09:04:00,69.1,62.7,29.03,SSW,202,8.5,9.6,80,0.00,,---,0.00,VWS V14.01,2013-04-30 14:04:00,
2013-04-30 09:09:00,69.6,63.2,29.03,South,180,7.4,7.4,80,0.00,,---,0.00,VWS V14.01,2013-04-30 14:09:00,
2013-04-30 09:14:00,70.0,63.2,29.03,SW,225,8.7,9.6,79,0.00,,---,0.00,VWS V14.01,2013-04-30 14:14:00,
2013-04-30 09:19:00,70.3,63.5,29.03,South,180,3.4,5.6,79,0.00,,---,0.00,VWS V14.01,2013-04-30 14:19:00,
2013-04-30 09:24:00,70.7,63.9,29.03,SW,225,5.8,5.8,79,0.00,,---,0.00,VWS V14.01,2013-04-30 14:24:00,
2013-04-30 09:29:00,71.1,63.9,29.03,SW,225,9.8,9.8,78,0.00,,---,0.00,VWS V14.01,2013-04-30 14:29:00,
2013-04-30 09:34:00,71.2,64.0,29.03,SSW,202,3.1,13.2,78,0.00,,---,0.00,VWS V14.01,2013-04-30 14:34:00,
2013-04-30 09:39:00,72.0,64.4,29.03,SW,225,5.4,5.4,77,0.00,,---,0.00,VWS V14.01,2013-04-30 14:39:00,
2013-04-30 09:45:00,72.3,64.3,29.03,South,180,4.9,4.9,76,0.00,,---,0.00,VWS V14.01,2013-04-30 14:45:00,
2013-04-30 09:50:00,72.7,64.7,29.03,South,180,9.6,9.6,76,0.00,,---,0.00,VWS V14.01,2013-04-30 14:50:00,
2013-04-30 09:55:00,72.9,64.5,29.03,SSW,202,4.0,4.0,75,0.00,,---,0.00,VWS V14.01,2013-04-30 14:55:00,
2013-04-30 10:00:00,73.4,65.0,29.03,SSW,202,8.7,14.3,75,0.00,,---,0.00,VWS V14.01,2013-04-30 15:00:00,
2013-04-30 10:05:00,73.8,64.6,29.03,SW,225,9.6,9.6,73,0.00,,---,0.00,VWS V14.01,2013-04-30 15:05:00,
2013-04-30 10:10:00,73.9,64.3,29.03,SSW,202,6.3,6.3,72,0.00,,---,0.00,VWS V14.01,2013-04-30 15:10:00,
2013-04-30 10:15:00,74.5,64.9,29.03,SW,225,7.6,13.2,72,0.00,,---,0.00,VWS V14.01,2013-04-30 15:15:00,
2013-04-30 10:20:00,75.0,65.4,29.03,SSW,202,6.0,6.0,72,0.00,,---,0.00,VWS V14.01,2013-04-30 15:20:00,
2013-04-30 10:25:00,75.2,64.3,29.03,SW,225,10.1,13.2,69,0.00,,---,0.00,VWS V14.01,2013-04-30 15:25:00,
2013-04-30 10:30:00,75.2,64.8,29.03,SW,225,5.8,5.8,70,0.00,,---,0.00,VWS V14.01,2013-04-30 15:30:00,
2013-04-30 10:35:00,75.6,64.7,29.03,South,180,7.4,7.4,69,0.00,,---,0.00,VWS V14.01,2013-04-30 15:35:00,
2013-04-30 10:40:00,75.9,65.0,29.03,South,180,5.4,10.5,69,0.00,,---,0.00,VWS V14.01,2013-04-30 15:40:00,
2013-04-30 10:45:00,76.5,65.1,29.03,SSE,158,4.0,7.8,68,0.00,,---,0.00,VWS V14.01,2013-04-30 15:45:00,
2013-04-30 10:50:00,77.0,65.2,29.03,SSE,158,5.8,5.8,67,0.00,,---,0.00,VWS V14.01,2013-04-30 15:50:00,
2013-04-30 10:56:00,77.0,64.8,29.03,SSW,202,3.4,7.2,66,0.00,,---,0.00,VWS V14.01,2013-04-30 15:56:00,
2013-04-30 11:01:00,77.2,64.9,29.03,South,180,5.4,7.8,66,0.00,,---,0.00,VWS V14.01,2013-04-30 16:01:00,
2013-04-30 11:06:00,77.5,64.4,29.03,SSW,202,6.5,6.5,64,0.00,,---,0.00,VWS V14.01,2013-04-30 16:06:00,
2013-04-30 11:11:00,77.7,65.5,29.03,SW,225,7.4,7.4,66,0.00,,---,0.00,VWS V14.01,2013-04-30 16:11:00,
2013-04-30 11:16:00,78.1,65.4,29.03,SSW,202,4.0,4.0,65,0.00,,---,0.00,VWS V14.01,2013-04-30 16:16:00,
2013-04-30 11:22:00,78.4,65.3,29.03,South,180,4.3,11.0,64,0.00,,---,0.00,VWS V14.01,2013-04-30 16:22:00,
2013-04-30 11:27:00,78.4,65.3,29.03,SSW,202,3.6,6.7,64,0.00,,---,0.00,VWS V14.01,2013-04-30 16:27:00,
2013-04-30 11:32:00,79.2,65.5,29.03,West,270,4.0,4.0,63,0.00,,---,0.00,VWS V14.01,2013-04-30 16:32:00,
2013-04-30 11:37:00,79.2,65.5,29.03,SW,225,9.6,9.6,63,0.00,,---,0.00,VWS V14.01,2013-04-30 16:37:00,
2013-04-30 11:42:00,79.5,65.8,29.03,SSW,202,6.0,6.0,63,0.00,,---,0.00,VWS V14.01,2013-04-30 16:42:00,
2013-04-30 11:47:00,80.2,65.6,29.03,SW,225,7.8,9.0,61,0.00,,---,0.00,VWS V14.01,2013-04-30 16:47:00,
2013-04-30 11:52:00,80.8,66.1,29.03,SW,225,10.5,10.5,61,0.00,,---,0.00,VWS V14.01,2013-04-30 16:52:00,
2013-04-30 11:58:00,80.8,65.1,29.03,SW,225,6.5,6.5,59,0.00,,---,0.00,VWS V14.01,2013-04-30 16:58:00,
2013-04-30 12:03:00,81.1,65.5,29.03,SSW,202,6.5,6.5,59,0.00,,---,0.00,VWS V14.01,2013-04-30 17:03:00,
2013-04-30 12:08:00,81.5,65.3,29.03,SSW,202,10.7,10.7,58,0.00,,---,0.00,VWS V14.01,2013-04-30 17:08:00,
2013-04-30 12:13:00,81.7,65.5,29.03,South,180,6.5,6.5,58,0.00,,---,0.00,VWS V14.01,2013-04-30 17:13:00,
2013-04-30 12:18:00,81.7,64.5,29.03,South,180,6.0,6.0,56,0.00,,---,0.00,VWS V14.01,2013-04-30 17:18:00,
2013-04-30 12:23:00,81.7,64.5,29.03,South,180,3.8,9.4,56,0.00,,---,0.00,VWS V14.01,2013-04-30 17:23:00,
2013-04-30 12:28:00,82.0,64.3,29.03,SSW,202,9.2,9.2,55,0.00,,---,0.00,VWS V14.01,2013-04-30 17:28:00,
2013-04-30 12:33:00,81.9,62.5,29.03,SW,225,6.3,7.6,52,0.00,,---,0.00,VWS V14.01,2013-04-30 17:33:00,
2013-04-30 12:38:00,82.2,64.5,29.03,NNE,22,4.9,5.4,55,0.00,,---,0.00,VWS V14.01,2013-04-30 17:38:00,
2013-04-30 12:43:00,82.2,63.9,29.03,SE,135,10.1,10.1,54,0.00,,---,0.00,VWS V14.01,2013-04-30 17:43:00,
2013-04-30 12:48:00,82.4,63.6,29.03,South,180,4.3,4.3,53,0.00,,---,0.00,VWS V14.01,2013-04-30 17:48:00,
2013-04-30 12:53:00,82.9,64.6,29.03,SSW,202,5.4,8.1,54,0.00,,---,0.00,VWS V14.01,2013-04-30 17:53:00,
2013-04-30 12:58:00,83.1,64.2,29.03,SW,225,9.8,9.8,53,0.00,,---,0.00,VWS V14.01,2013-04-30 17:58:00,
2013-04-30 13:03:00,83.3,64.4,29.03,SW,225,7.8,7.8,53,0.00,,---,0.00,VWS V14.01,2013-04-30 18:03:00,
2013-04-30 13:08:00,83.3,63.9,29.03,SSW,202,4.3,4.3,52,0.00,,---,0.00,VWS V14.01,2013-04-30 18:08:00,
2013-04-30 13:13:00,83.7,63.6,29.03,SW,225,4.9,4.9,51,0.00,,---,0.00,VWS V14.01,2013-04-30 18:13:00,
2013-04-30 13:19:00,83.5,63.5,29.03,SW,225,5.8,5.8,51,0.00,,---,0.00,VWS V14.01,2013-04-30 18:19:00,
2013-04-30 13:24:00,83.8,63.8,29.03,South,180,4.3,4.3,51,0.00,,---,0.00,VWS V14.01,2013-04-30 18:24:00,
2013-04-30 13:29:00,83.7,63.1,29.03,SW,225,7.8,7.8,50,0.00,,---,0.00,VWS V14.01,2013-04-30 18:29:00,
2013-04-30 13:34:00,83.7,62.5,29.03,SW,225,12.3,12.3,49,0.00,,---,0.00,VWS V14.01,2013-04-30 18:34:00,
2013-04-30 13:39:00,83.7,61.9,29.03,South,180,15.2,15.2,48,0.00,,---,0.00,VWS V14.01,2013-04-30 18:39:00,
2013-04-30 13:44:00,83.8,62.7,29.03,SW,225,3.1,8.7,49,0.00,,---,0.00,VWS V14.01,2013-04-30 18:44:00,
2013-04-30 13:49:00,84.7,62.9,29.03,SW,225,5.6,5.6,48,0.00,,---,0.00,VWS V14.01,2013-04-30 18:49:00,
2013-04-30 13:54:00,85.3,63.4,29.03,SSW,202,10.5,10.5,48,0.00,,---,0.00,VWS V14.01,2013-04-30 18:54:00,
2013-04-30 13:59:00,86.2,61.7,29.03,SW,225,6.5,6.5,44,0.00,,---,0.00,VWS V14.01,2013-04-30 18:59:00,
2013-04-30 14:04:00,86.2,61.7,29.03,SSW,202,5.8,5.8,44,0.00,,---,0.00,VWS V14.01,2013-04-30 19:04:00,
2013-04-30 14:09:00,87.1,62.5,29.03,SW,225,4.9,12.5,44,0.00,,---,0.00,VWS V14.01,2013-04-30 19:09:00,
2013-04-30 14:14:00,86.4,63.8,29.03,SSW,202,19.7,19.7,47,0.00,,---,0.00,VWS V14.01,2013-04-30 19:14:00,
2013-04-30 14:19:00,86.2,63.0,29.03,SW,225,13.2,13.2,46,0.00,,---,0.00,VWS V14.01,2013-04-30 19:19:00,
2013-04-30 14:24:00,85.8,62.0,29.03,SW,225,8.5,9.4,45,0.00,,---,0.00,VWS V14.01,2013-04-30 19:24:00,
2013-04-30 14:29:00,85.8,62.0,29.03,SW,225,3.4,3.4,45,0.00,,---,0.00,VWS V14.01,2013-04-30 19:29:00,
2013-04-30 14:35:00,85.5,61.1,29.03,SW,225,4.0,4.0,44,0.00,,---,0.00,VWS V14.01,2013-04-30 19:35:00,
2013-04-30 14:40:00,85.3,60.9,29.03,SSW,202,4.7,4.7,44,0.00,,---,0.00,VWS V14.01,2013-04-30 19:40:00,
2013-04-30 14:45:00,85.6,61.2,29.03,SSE,158,7.4,7.4,44,0.00,,---,0.00,VWS V14.01,2013-04-30 19:45:00,
2013-04-30 14:50:00,85.8,61.4,29.03,SW,225,2.9,13.9,44,0.00,,---,0.00,VWS V14.01,2013-04-30 19:50:00,
2013-04-30 14:55:00,85.6,61.2,29.03,SW,225,7.6,7.6,44,0.00,,---,0.00,VWS V14.01,2013-04-30 19:55:00,
2013-04-30 15:00:00,85.5,61.1,29.03,SW,225,5.8,9.6,44,0.00,,---,0.00,VWS V14.01,2013-04-30 20:00:00,
2013-04-30 15:05:00,85.5,61.1,29.03,SW,225,6.0,6.0,44,0.00,,---,0.00,VWS V14.01,2013-04-30 20:05:00,
2013-04-30 15:10:00,85.5,60.4,29.03,SSW,202,5.4,5.4,43,0.00,,---,0.00,VWS V14.01,2013-04-30 20:10:00,
2013-04-30 15:15:00,85.3,59.6,29.03,South,180,12.1,12.1,42,0.00,,---,0.00,VWS V14.01,2013-04-30 20:15:00,
2013-04-30 15:21:00,85.5,59.8,29.03,WSW,248,6.0,6.0,42,0.00,,---,0.00,VWS V14.01,2013-04-30 20:21:00,
2013-04-30 15:26:00,85.5,60.4,29.03,SW,225,2.5,5.8,43,0.00,,---,0.00,VWS V14.01,2013-04-30 20:26:00,
2013-04-30 15:31:00,85.5,59.8,29.03,South,180,11.0,11.0,42,0.00,,---,0.00,VWS V14.01,2013-04-30 20:31:00,
2013-04-30 15:36:00,84.9,59.3,29.03,South,180,4.9,4.9,42,0.00,,---,0.00,VWS V14.01,2013-04-30 20:36:00,
2013-04-30 15:41:00,84.9,58.6,29.03,SW,225,6.9,6.9,41,0.00,,---,0.00,VWS V14.01,2013-04-30 20:41:00,
2013-04-30 15:46:00,85.1,59.5,29.03,SW,225,10.5,10.5,42,0.00,,---,0.00,VWS V14.01,2013-04-30 20:46:00,
2013-04-30 15:51:00,85.3,58.9,29.03,SSW,202,8.7,10.3,41,0.00,,---,0.00,VWS V14.01,2013-04-30 20:51:00,
2013-04-30 15:56:00,84.9,58.6,29.03,SSW,202,10.5,12.8,41,0.00,,---,0.00,VWS V14.01,2013-04-30 20:56:00,
2013-04-30 16:01:00,84.9,58.6,29.03,SW,225,7.2,8.5,41,0.00,,---,0.00,VWS V14.01,2013-04-30 21:01:00,
2013-04-30 16:06:00,85.3,58.9,29.03,South,180,12.1,12.1,41,0.00,,---,0.00,VWS V14.01,2013-04-30 21:06:00,
2013-04-30 16:11:00,85.1,58.8,29.03,SE,135,2.0,3.6,41,0.00,,---,0.00,VWS V14.01,2013-04-30 21:11:00,
2013-04-30 16:16:00,84.9,57.9,29.03,South,180,7.4,8.7,40,0.00,,---,0.00,VWS V14.01,2013-04-30 21:16:00,
2013-04-30 16:21:00,85.1,58.1,29.03,South,180,10.3,10.5,40,0.00,,---,0.00,VWS V14.01,2013-04-30 21:21:00,
2013-04-30 16:27:00,84.7,57.8,29.03,South,180,10.5,10.5,40,0.00,,---,0.00,VWS V14.01,2013-04-30 21:27:00,
2013-04-30 16:32:00,84.9,57.9,29.06,SW,225,10.1,10.1,40,0.00,,---,0.00,VWS V14.01,2013-04-30 21:32:00,
2013-04-30 16:37:00,84.7,57.8,29.06,South,180,9.8,9.8,40,0.00,,---,0.00,VWS V14.01,2013-04-30 21:37:00,
2013-04-30 16:42:00,84.6,57.6,29.06,SW,225,17.5,17.5,40,0.00,,---,0.00,VWS V14.01,2013-04-30 21:42:00,
2013-04-30 16:47:00,84.4,57.5,29.06,SW,225,3.8,9.2,40,0.00,,---,0.00,VWS V14.01,2013-04-30 21:47:00,
2013-04-30 16:52:00,84.2,57.3,29.06,SSW,202,11.0,11.0,40,0.00,,---,0.00,VWS V14.01,2013-04-30 21:52:00,
2013-04-30 16:57:00,84.2,57.3,29.06,South,180,13.0,13.0,40,0.00,,---,0.00,VWS V14.01,2013-04-30 21:57:00,
2013-04-30 17:02:00,84.2,56.6,29.06,SW,225,7.8,10.7,39,0.00,,---,0.00,VWS V14.01,2013-04-30 22:02:00,
2013-04-30 17:07:00,83.8,57.0,29.06,SE,135,4.3,5.6,40,0.00,,---,0.00,VWS V14.01,2013-04-30 22:07:00,
2013-04-30 17:12:00,83.7,56.8,29.06,South,180,2.7,8.1,40,0.00,,---,0.00,VWS V14.01,2013-04-30 22:12:00,
2013-04-30 17:17:00,83.8,57.0,29.06,SSW,202,9.8,9.8,40,0.00,,---,0.00,VWS V14.01,2013-04-30 22:17:00,
2013-04-30 17:22:00,83.7,56.8,29.06,South,180,5.8,10.5,40,0.00,,---,0.00,VWS V14.01,2013-04-30 22:22:00,
2013-04-30 17:27:00,83.5,55.9,29.06,South,180,3.6,3.6,39,0.00,,---,0.00,VWS V14.01,2013-04-30 22:27:00,
2013-04-30 17:32:00,83.3,55.8,29.06,SW,225,6.0,7.6,39,0.00,,---,0.00,VWS V14.01,2013-04-30 22:32:00,
2013-04-30 17:37:00,83.3,55.8,29.06,SSW,202,8.1,8.1,39,0.00,,---,0.00,VWS V14.01,2013-04-30 22:37:00,
2013-04-30 17:43:00,83.1,55.6,29.06,SSW,202,7.6,7.6,39,0.00,,---,0.00,VWS V14.01,2013-04-30 22:43:00,
2013-04-30 17:48:00,82.8,55.3,29.09,SW,225,6.5,6.5,39,0.00,,---,0.00,VWS V14.01,2013-04-30 22:48:00,
2013-04-30 17:53:00,82.6,55.1,29.09,SE,135,3.4,3.4,39,0.00,,---,0.00,VWS V14.01,2013-04-30 22:53:00,
2013-04-30 17:58:00,82.2,54.8,29.09,South,180,6.5,8.7,39,0.00,,---,0.00,VWS V14.01,2013-04-30 22:58:00,
2013-04-30 18:03:00,82.2,54.8,29.09,SSW,202,13.0,13.0,39,0.00,,---,0.00,VWS V14.01,2013-04-30 23:03:00,
2013-04-30 18:08:00,81.9,53.8,29.09,SW,225,10.1,10.1,38,0.00,,---,0.00,VWS V14.01,2013-04-30 23:08:00,
2013-04-30 18:13:00,81.7,52.9,29.06,SSE,158,8.5,8.5,37,0.00,,---,0.00,VWS V14.01,2013-04-30 23:13:00,
2013-04-30 18:18:00,81.5,52.7,29.09,SSW,202,4.9,7.8,37,0.00,,---,0.00,VWS V14.01,2013-04-30 23:18:00,
2013-04-30 18:23:00,81.0,52.3,29.09,South,180,4.9,7.4,37,0.00,,---,0.00,VWS V14.01,2013-04-30 23:23:00,
2013-04-30 18:28:00,80.8,52.1,29.09,ESE,112,8.7,8.7,37,0.00,,---,0.00,VWS V14.01,2013-04-30 23:28:00,
2013-04-30 18:33:00,80.8,52.8,29.09,South,180,5.6,5.6,38,0.00,,---,0.00,VWS V14.01,2013-04-30 23:33:00,
2013-04-30 18:38:00,80.4,53.2,29.09,SSW,202,6.3,7.8,39,0.00,,---,0.00,VWS V14.01,2013-04-30 23:38:00,
2013-04-30 18:43:00,80.2,53.1,29.09,South,180,5.6,9.6,39,0.00,,---,0.00,VWS V14.01,2013-04-30 23:43:00,
2013-04-30 18:48:00,79.9,52.7,29.09,SSE,158,5.6,6.0,39,0.00,,---,0.00,VWS V14.01,2013-04-30 23:48:00,
2013-04-30 18:53:00,79.7,52.6,29.09,SSW,202,6.0,9.4,39,0.00,,---,0.00,VWS V14.01,2013-04-30 23:53:00,
2013-04-30 18:58:00,79.5,52.4,29.09,South,180,3.6,3.6,39,0.00,,---,0.00,VWS V14.01,2013-04-30 23:58:00,
2013-04-30 19:03:00,79.2,52.1,29.09,SSE,158,5.4,5.4,39,0.00,,---,0.00,VWS V14.01,2013-05-01 00:03:00,
2013-04-30 19:08:00,78.8,52.5,29.09,South,180,3.6,3.6,40,0.00,,---,0.00,VWS V14.01,2013-05-01 00:08:00,
2013-04-30 19:14:00,78.6,52.3,29.09,SSW,202,6.0,7.4,40,0.00,,---,0.00,VWS V14.01,2013-05-01 00:14:00,
2013-04-30 19:19:00,78.3,52.0,29.09,South,180,8.7,8.7,40,0.00,,---,0.00,VWS V14.01,2013-05-01 00:19:00,
2013-04-30 19:24:00,78.1,52.5,29.09,South,180,3.1,3.1,41,0.00,,---,0.00,VWS V14.01,2013-05-01 00:24:00,
2013-04-30 19:29:00,77.7,52.2,29.09,SSW,202,5.4,5.4,41,0.00,,---,0.00,VWS V14.01,2013-05-01 00:29:00,
2013-04-30 19:34:00,77.4,51.8,29.09,SSE,158,4.3,4.3,41,0.00,,---,0.00,VWS V14.01,2013-05-01 00:34:00,
2013-04-30 19:39:00,77.0,51.5,29.09,South,180,7.6,7.6,41,0.00,,---,0.00,VWS V14.01,2013-05-01 00:39:00,
2013-04-30 19:44:00,76.8,52.0,29.09,SSW,202,2.7,7.6,42,0.00,,---,0.00,VWS V14.01,2013-05-01 00:44:00,
2013-04-30 19:49:00,76.5,52.3,29.09,ESE,112,4.3,5.4,43,0.00,,---,0.00,VWS V14.01,2013-05-01 00:49:00,
2013-04-30 19:54:00,76.1,52.0,29.09,South,180,7.4,7.4,43,0.00,,---,0.00,VWS V14.01,2013-05-01 00:54:00,
2013-04-30 19:59:00,75.9,51.8,29.09,SSW,202,3.8,3.8,43,0.00,,---,0.00,VWS V14.01,2013-05-01 00:59:00,
2013-04-30 20:04:00,75.7,52.3,29.09,South,180,5.6,5.6,44,0.00,,---,0.00,VWS V14.01,2013-05-01 01:04:00,
2013-04-30 20:09:00,75.4,52.0,29.09,South,180,2.9,4.7,44,0.00,,---,0.00,VWS V14.01,2013-05-01 01:09:00,
2013-04-30 20:14:00,75.2,51.8,29.09,South,180,4.7,5.6,44,0.00,,---,0.00,VWS V14.01,2013-05-01 01:14:00,
2013-04-30 20:19:00,74.8,52.1,29.09,SSW,202,5.8,5.8,45,0.00,,---,0.00,VWS V14.01,2013-05-01 01:19:00,
2013-04-30 20:24:00,74.8,52.1,29.09,SW,225,4.0,4.0,45,0.00,,---,0.00,VWS V14.01,2013-05-01 01:24:00,
2013-04-30 20:29:00,74.7,52.5,29.09,SSW,202,4.3,4.3,46,0.00,,---,0.00,VWS V14.01,2013-05-01 01:29:00,
2013-04-30 20:35:00,74.5,52.4,29.09,South,180,6.0,6.0,46,0.00,,---,0.00,VWS V14.01,2013-05-01 01:35:00,
2013-04-30 20:40:00,74.3,52.2,29.09,South,180,5.8,5.8,46,0.00,,---,0.00,VWS V14.01,2013-05-01 01:40:00,
2013-04-30 20:45:00,74.1,52.0,29.09,SSE,158,4.3,4.3,46,0.00,,---,0.00,VWS V14.01,2013-05-01 01:45:00,
2013-04-30 20:50:00,73.9,51.9,29.09,ENE,68,3.8,3.8,46,0.00,,---,0.00,VWS V14.01,2013-05-01 01:50:00,
2013-04-30 20:55:00,73.8,52.3,29.09,ESE,112,5.6,5.6,47,0.00,,---,0.00,VWS V14.01,2013-05-01 01:55:00,
2013-04-30 21:00:00,73.4,52.0,29.09,South,180,4.0,4.0,47,0.00,,---,0.00,VWS V14.01,2013-05-01 02:00:00,
2013-04-30 21:05:00,73.2,52.4,29.12,SE,135,4.3,4.3,48,0.00,,---,0.00,VWS V14.01,2013-05-01 02:05:00,
2013-04-30 21:10:00,73.0,52.2,29.12,South,180,6.0,6.0,48,0.00,,---,0.00,VWS V14.01,2013-05-01 02:10:00,
2013-04-30 21:15:00,73.0,52.2,29.12,South,180,7.8,7.8,48,0.00,,---,0.00,VWS V14.01,2013-05-01 02:15:00,
2013-04-30 21:20:00,72.9,52.0,29.12,SSW,202,3.8,3.8,48,0.00,,---,0.00,VWS V14.01,2013-05-01 02:20:00,
2013-04-30 21:25:00,72.5,51.7,29.12,South,180,6.3,6.9,48,0.00,,---,0.00,VWS V14.01,2013-05-01 02:25:00,
2013-04-30 21:30:00,72.5,51.7,29.12,SE,135,5.6,5.6,48,0.00,,---,0.00,VWS V14.01,2013-05-01 02:30:00,
2013-04-30 21:35:00,72.3,51.5,29.12,South,180,7.6,7.6,48,0.00,,---,0.00,VWS V14.01,2013-05-01 02:35:00,
2013-04-30 21:40:00,72.1,51.4,29.12,South,180,3.6,5.4,48,0.00,,---,0.00,VWS V14.01,2013-05-01 02:40:00,
2013-04-30 21:45:00,72.0,51.2,29.12,South,180,3.4,3.4,48,0.00,,---,0.00,VWS V14.01,2013-05-01 02:45:00,
2013-04-30 21:51:00,71.8,51.6,29.12,South,180,4.9,6.5,49,0.00,,---,0.00,VWS V14.01,2013-05-01 02:51:00,
2013-04-30 21:56:00,71.6,51.5,29.12,SSE,158,7.4,7.4,49,0.00,,---,0.00,VWS V14.01,2013-05-01 02:56:00,
2013-04-30 22:01:00,71.4,51.8,29.12,South,180,3.6,4.0,50,0.00,,---,0.00,VWS V14.01,2013-05-01 03:01:00,
2013-04-30 22:06:00,71.4,51.8,29.12,SSW,202,4.3,5.6,50,0.00,,---,0.00,VWS V14.01,2013-05-01 03:06:00,
2013-04-30 22:11:00,71.2,51.7,29.12,South,180,2.5,2.5,50,0.00,,---,0.00,VWS V14.01,2013-05-01 03:11:00,
2013-04-30 22:16:00,71.1,52.0,29.12,SSE,158,4.3,4.3,51,0.00,,---,0.00,VWS V14.01,2013-05-01 03:16:00,
2013-04-30 22:21:00,70.9,51.9,29.12,SSW,202,3.8,3.8,51,0.00,,---,0.00,VWS V14.01,2013-05-01 03:21:00,
2013-04-30 22:26:00,70.7,51.7,29.12,SSW,202,2.7,3.8,51,0.00,,---,0.00,VWS V14.01,2013-05-01 03:26:00,
2013-04-30 22:31:00,70.5,52.1,29.12,SE,135,3.8,3.8,52,0.00,,---,0.00,VWS V14.01,2013-05-01 03:31:00,
2013-04-30 22:36:00,70.3,51.9,29.12,ESE,112,2.5,4.7,52,0.00,,---,0.00,VWS V14.01,2013-05-01 03:36:00,
2013-04-30 22:41:00,70.2,52.2,29.12,SE,135,4.7,4.7,53,0.00,,---,0.00,VWS V14.01,2013-05-01 03:41:00,
2013-04-30 22:46:00,70.0,52.1,29.12,SSW,202,2.2,2.2,53,0.00,,---,0.00,VWS V14.01,2013-05-01 03:46:00,
2013-04-30 22:51:00,69.6,52.8,29.12,SE,135,3.4,3.4,55,0.00,,---,0.00,VWS V14.01,2013-05-01 03:51:00,
2013-04-30 22:56:00,69.4,52.6,29.12,SSE,158,2.0,2.9,55,0.00,,---,0.00,VWS V14.01,2013-05-01 03:56:00,
2013-04-30 23:01:00,69.3,52.9,29.14,SSE,158,1.3,1.3,56,0.00,,---,0.00,VWS V14.01,2013-05-01 04:01:00,
2013-04-30 23:02:00,69.1,52.7,29.14,South,180,3.6,3.6,56,0.00,,---,0.00,VWS V14.01,2013-05-01 04:02:00,
2013-04-30 23:07:00,68.9,53.1,29.14,South,180,0.0,0.0,57,0.00,,---,0.00,VWS V14.01,2013-05-01 04:07:00,
2013-04-30 23:12:00,68.5,53.2,29.14,ESE,112,3.6,3.6,58,0.00,,---,0.00,VWS V14.01,2013-05-01 04:12:00,
2013-04-30 23:18:00,68.4,53.5,29.14,NE,45,1.3,1.3,59,0.00,,---,0.00,VWS V14.01,2013-05-01 04:18:00,
2013-04-30 23:23:00,68.2,53.3,29.14,South,180,2.0,2.5,59,0.00,,---,0.00,VWS V14.01,2013-05-01 04:23:00,
2013-04-30 23:28:00,68.0,54.1,29.14,SSE,158,1.3,1.3,61,0.00,,---,0.00,VWS V14.01,2013-05-01 04:28:00,
2013-04-30 23:33:00,67.8,53.9,29.14,SSE,158,2.0,3.4,61,0.00,,---,0.00,VWS V14.01,2013-05-01 04:33:00,
2013-04-30 23:38:00,67.6,54.2,29.14,SSW,202,2.5,2.5,62,0.00,,---,0.00,VWS V14.01,2013-05-01 04:38:00,
2013-04-30 23:43:00,67.5,54.4,29.14,SE,135,3.1,3.1,63,0.00,,---,0.00,VWS V14.01,2013-05-01 04:43:00,
2013-04-30 23:48:00,67.3,54.3,29.14,SSE,158,3.4,3.4,63,0.00,,---,0.00,VWS V14.01,2013-05-01 04:48:00,
2013-04-30 23:53:00,67.1,54.5,29.14,South,180,4.0,4.0,64,0.00,,---,0.00,VWS V14.01,2013-05-01 04:53:00,
2013-04-30 23:58:00,66.9,54.4,29.14,South,180,2.7,2.7,64,0.00,,---,0.00,VWS V14.01,2013-05-01 04:58:00,